Terminal Aerodrome Forecast
Issued by NWS Cleveland, OH

Home | Current Version | Previous Version | Text Only | Print | Product List | Glossary On
Versions: 1 2 3 4 5 6 7 8 9 10 11 12 13 14 15 16 17 18 19 20 21 22 23 24 25 26 27 28 29 30 31 32 33 34 35 36
000
FTUS41 KCLE 161018 AAC
TAFERI
TAF AMD
KERI 161018Z 1610/1706 03008KT 4SM BR BKN009 OVC015
      TEMPO 1610/1613 1SM BR OVC002
     FM161600 03008KT P6SM BKN008 OVC035
     FM170100 06006KT P6SM SCT015 BKN050=

USA.gov is the U.S. government's official web portal to all federal, state and local government web resources and services.